createdAt,value
2018-12-20T00:01:16.077Z,7.77
2018-12-20T00:03:44.428Z,7.62
2018-12-20T00:06:12.870Z,7.61
2018-12-20T00:08:41.270Z,7.73
2018-12-20T00:11:09.692Z,7.79
2018-12-20T00:13:38.152Z,7.84
2018-12-20T00:16:06.619Z,7.85
2018-12-20T00:18:34.964Z,7.69
2018-12-20T00:21:03.494Z,7.78
2018-12-20T00:23:32.046Z,7.95
2018-12-20T00:26:00.925Z,7.90
2018-12-20T00:28:29.405Z,8.17
2018-12-20T00:30:57.989Z,8.22
2018-12-20T00:33:26.514Z,8.06
2018-12-20T00:35:54.988Z,7.99
2018-12-20T00:38:23.374Z,8.11
2018-12-20T00:40:51.736Z,8.17
2018-12-20T00:43:20.140Z,8.48
2018-12-20T00:45:48.460Z,8.47
2018-12-20T00:48:16.811Z,8.33
2018-12-20T00:50:45.181Z,8.67
2018-12-20T00:53:13.587Z,8.43
2018-12-20T00:55:42.016Z,8.47
2018-12-20T00:58:10.487Z,8.45
2018-12-20T01:00:38.864Z,8.50
2018-12-20T01:03:07.387Z,8.42
2018-12-20T01:05:35.990Z,8.60
2018-12-20T01:08:04.504Z,8.53
2018-12-20T01:10:33.116Z,8.53
2018-12-20T01:13:01.543Z,8.64
2018-12-20T01:15:30.037Z,8.77
2018-12-20T01:17:58.532Z,8.83
2018-12-20T01:20:27.006Z,8.81
2018-12-20T01:22:55.459Z,8.68
2018-12-20T01:25:23.881Z,8.56
2018-12-20T01:27:52.370Z,8.54
2018-12-20T01:30:20.914Z,8.64
2018-12-20T01:32:49.355Z,8.63
2018-12-20T01:35:17.822Z,8.43
2018-12-20T01:37:46.400Z,8.31
2018-12-20T01:40:14.744Z,8.56
2018-12-20T01:42:43.313Z,8.48
2018-12-20T01:45:11.688Z,8.37
2018-12-20T01:47:40.104Z,8.27
2018-12-20T01:50:08.761Z,8.26
2018-12-20T01:52:37.315Z,8.27
2018-12-20T01:55:05.922Z,8.35
2018-12-20T01:57:34.462Z,8.29
2018-12-20T02:00:05.241Z,8.20
2018-12-20T02:02:33.634Z,8.36
2018-12-20T02:05:02.014Z,8.22
2018-12-20T02:07:30.496Z,8.40
2018-12-20T02:09:59.137Z,8.29
2018-12-20T02:12:27.586Z,8.46
2018-12-20T02:15:01.636Z,8.28
2018-12-20T02:17:26.581Z,8.44
2018-12-20T02:19:55.212Z,8.40
2018-12-20T02:22:23.890Z,8.35
2018-12-20T02:24:52.240Z,8.49
2018-12-20T02:27:20.779Z,8.42
2018-12-20T02:29:49.146Z,8.36
2018-12-20T02:32:17.522Z,8.38
2018-12-20T02:34:45.924Z,8.40
2018-12-20T02:37:14.432Z,8.29
2018-12-20T02:39:43.056Z,8.32
2018-12-20T02:42:11.659Z,8.45
2018-12-20T02:44:40.020Z,8.36
2018-12-20T02:47:08.421Z,8.43
2018-12-20T02:49:36.775Z,8.51
2018-12-20T02:52:05.189Z,8.51
2018-12-20T02:54:33.964Z,8.45
2018-12-20T02:57:02.410Z,8.39
2018-12-20T02:59:30.845Z,8.44
2018-12-20T03:01:59.324Z,8.55
2018-12-20T03:04:27.763Z,8.60
2018-12-20T03:06:56.485Z,8.46
2018-12-20T03:09:24.969Z,8.55
2018-12-20T03:11:53.359Z,8.56
2018-12-20T03:14:21.870Z,8.52
2018-12-20T03:16:50.439Z,8.52
2018-12-20T03:19:18.880Z,8.55
2018-12-20T03:21:47.517Z,8.40
2018-12-20T03:24:16.070Z,8.55
2018-12-20T03:26:44.608Z,8.48
2018-12-20T03:29:12.967Z,8.66
2018-12-20T03:31:41.429Z,8.59
2018-12-20T03:34:09.764Z,8.57
2018-12-20T03:36:38.177Z,8.48
2018-12-20T03:39:07.539Z,8.59
2018-12-20T03:41:36.036Z,8.54
2018-12-20T03:44:04.873Z,8.64
2018-12-20T03:46:34.224Z,8.82
2018-12-20T03:49:03.063Z,8.57
2018-12-20T03:51:31.765Z,8.74
2018-12-20T03:54:00.304Z,8.62
2018-12-20T03:56:29.446Z,8.78
2018-12-20T03:58:57.888Z,8.60
2018-12-20T04:01:26.492Z,8.74
2018-12-20T04:03:54.879Z,8.65
2018-12-20T04:06:23.359Z,8.71
2018-12-20T04:08:51.873Z,8.76
2018-12-20T04:11:20.370Z,8.80
2018-12-20T04:13:48.791Z,8.76
2018-12-20T04:16:17.416Z,8.88
2018-12-20T04:18:46.114Z,8.89
2018-12-20T04:21:14.577Z,8.76
2018-12-20T04:23:43.429Z,8.76
2018-12-20T04:26:11.885Z,8.76
2018-12-20T04:28:40.288Z,8.66
2018-12-20T04:31:08.617Z,8.54
2018-12-20T04:33:36.996Z,8.77
2018-12-20T04:36:05.599Z,8.84
2018-12-20T04:38:34.147Z,8.84
2018-12-20T04:41:02.701Z,8.86
2018-12-20T04:43:31.179Z,8.79
2018-12-20T04:45:59.581Z,8.79
2018-12-20T04:48:28.267Z,8.83
2018-12-20T04:50:56.717Z,8.68
2018-12-20T04:53:25.356Z,8.61
2018-12-20T04:55:54.002Z,8.40
2018-12-20T04:58:22.392Z,8.37
2018-12-20T05:00:50.732Z,8.21
2018-12-20T05:03:19.337Z,8.14
2018-12-20T05:05:47.699Z,8.07
2018-12-20T05:08:16.223Z,8.03
2018-12-20T05:10:45.377Z,8.06
2018-12-20T05:13:13.808Z,8.10
2018-12-20T05:15:42.298Z,8.13
2018-12-20T05:18:10.763Z,8.49
2018-12-20T05:20:39.195Z,8.33
2018-12-20T05:23:07.631Z,8.34
2018-12-20T05:25:35.962Z,8.12
2018-12-20T05:28:04.287Z,8.09
2018-12-20T05:30:32.697Z,8.18
2018-12-20T05:33:01.092Z,8.13
2018-12-20T05:35:29.452Z,8.07
2018-12-20T05:37:58.033Z,7.82
2018-12-20T05:40:26.595Z,7.79
2018-12-20T05:42:55.074Z,7.62
2018-12-20T05:45:23.522Z,7.49
2018-12-20T05:47:52.002Z,7.54
2018-12-20T05:50:20.471Z,7.47
2018-12-20T05:52:48.835Z,7.38
2018-12-20T05:55:17.627Z,7.33
2018-12-20T05:57:46.892Z,7.31
2018-12-20T06:00:15.451Z,7.35
2018-12-20T06:02:44.126Z,7.32
2018-12-20T06:05:12.533Z,7.29
2018-12-20T06:07:41.001Z,7.26
2018-12-20T06:10:09.499Z,7.24
2018-12-20T06:12:37.911Z,7.13
2018-12-20T06:15:07.345Z,7.07
2018-12-20T06:17:35.996Z,7.10
2018-12-20T06:20:05.620Z,7.12
2018-12-20T06:22:33.988Z,7.03
2018-12-20T06:25:02.344Z,6.86
2018-12-20T06:27:30.747Z,6.85
2018-12-20T06:29:59.092Z,6.81
2018-12-20T06:32:27.461Z,6.86
2018-12-20T06:34:55.787Z,6.97
2018-12-20T06:37:24.152Z,7.25
2018-12-20T06:39:52.497Z,7.61
2018-12-20T06:42:20.829Z,7.68
2018-12-20T06:44:49.149Z,7.82
2018-12-20T06:47:17.582Z,7.77
2018-12-20T06:49:45.927Z,7.72
2018-12-20T06:52:14.457Z,7.81
2018-12-20T06:54:42.808Z,7.74
2018-12-20T06:57:11.252Z,7.72
2018-12-20T06:59:39.592Z,7.60
2018-12-20T07:02:07.949Z,7.56
2018-12-20T07:04:36.284Z,7.70
2018-12-20T07:07:04.730Z,7.68
2018-12-20T07:09:33.123Z,7.84
2018-12-20T07:12:01.467Z,7.78
2018-12-20T07:14:29.807Z,7.81
2018-12-20T07:16:58.138Z,7.81
2018-12-20T07:19:27.312Z,7.92
2018-12-20T07:21:55.687Z,8.04
2018-12-20T07:24:24.031Z,8.07
2018-12-20T07:26:52.382Z,8.09
2018-12-20T07:29:20.786Z,8.01
2018-12-20T07:31:49.162Z,8.10
2018-12-20T07:34:17.496Z,8.05
2018-12-20T07:36:45.828Z,8.05
2018-12-20T07:39:14.175Z,8.08
2018-12-20T07:41:42.541Z,8.04
2018-12-20T07:44:11.023Z,8.05
2018-12-20T07:46:39.445Z,8.22
2018-12-20T07:49:07.926Z,8.26
2018-12-20T07:51:36.264Z,8.24
2018-12-20T07:54:04.743Z,8.28
2018-12-20T07:56:33.088Z,8.30
2018-12-20T07:59:01.413Z,8.47
2018-12-20T08:01:29.768Z,8.53
2018-12-20T08:03:58.117Z,8.42
2018-12-20T08:06:26.463Z,8.47
2018-12-20T08:08:54.804Z,8.53
2018-12-20T08:11:23.181Z,8.49
2018-12-20T08:13:51.507Z,8.58
2018-12-20T08:16:19.901Z,8.67
2018-12-20T08:18:48.442Z,8.62
2018-12-20T08:21:16.923Z,8.65
2018-12-20T08:23:45.257Z,8.77
2018-12-20T08:26:13.602Z,8.59
2018-12-20T08:28:41.932Z,8.65
2018-12-20T08:31:10.315Z,8.83
2018-12-20T08:33:38.676Z,8.77
2018-12-20T08:36:07.023Z,8.66
2018-12-20T08:38:35.349Z,8.86
2018-12-20T08:41:03.724Z,8.81
2018-12-20T08:43:32.085Z,8.85
2018-12-20T08:46:00.413Z,8.92
2018-12-20T08:48:29.084Z,8.89
2018-12-20T08:50:57.406Z,8.92
2018-12-20T08:53:25.731Z,8.87
2018-12-20T08:55:54.062Z,9.03
2018-12-20T08:58:22.427Z,8.88
2018-12-20T09:00:50.743Z,8.70
2018-12-20T09:03:19.150Z,8.90
2018-12-20T09:05:47.474Z,8.87
2018-12-20T09:08:15.812Z,9.01
2018-12-20T09:10:44.155Z,9.29
2018-12-20T09:13:12.502Z,9.10
2018-12-20T09:15:40.894Z,9.11
2018-12-20T09:18:09.311Z,8.96
2018-12-20T09:20:37.627Z,8.90
2018-12-20T09:23:06.380Z,9.13
2018-12-20T09:25:34.710Z,9.22
2018-12-20T09:28:03.101Z,9.25
2018-12-20T09:30:31.452Z,9.28
2018-12-20T09:32:59.824Z,9.42
2018-12-20T09:35:28.182Z,9.39
2018-12-20T09:37:56.501Z,9.27
2018-12-20T09:40:24.915Z,9.40
2018-12-20T09:42:53.280Z,9.32
2018-12-20T09:45:21.603Z,9.34
2018-12-20T09:47:53.584Z,9.29
2018-12-20T09:50:21.939Z,9.28
2018-12-20T09:52:50.270Z,9.31
2018-12-20T09:55:18.604Z,9.25
2018-12-20T09:57:46.953Z,9.17
2018-12-20T10:00:15.428Z,9.22
2018-12-20T10:02:43.843Z,9.28
2018-12-20T10:05:12.357Z,9.21
2018-12-20T10:07:40.761Z,9.18
2018-12-20T10:10:09.481Z,9.25
2018-12-20T10:12:37.849Z,9.25
2018-12-20T10:15:07.368Z,9.46
2018-12-20T10:17:35.702Z,9.26
2018-12-20T10:20:05.415Z,9.31
2018-12-20T10:22:34.069Z,9.44
2018-12-20T10:25:02.400Z,9.46
2018-12-20T10:27:31.535Z,9.67
2018-12-20T10:30:00.279Z,9.58
2018-12-20T10:32:28.621Z,9.60
2018-12-20T10:34:57.073Z,9.76
2018-12-20T10:37:25.432Z,9.77
2018-12-20T10:39:53.765Z,9.88
2018-12-20T10:42:22.070Z,9.90
2018-12-20T10:44:50.390Z,9.93
2018-12-20T10:47:28.765Z,9.96
2018-12-20T10:49:55.123Z,10.07
2018-12-20T10:52:23.469Z,10.22
2018-12-20T10:54:51.826Z,10.39
2018-12-20T10:57:21.404Z,10.07
2018-12-20T10:59:49.946Z,10.06
2018-12-20T11:02:23.852Z,10.26
2018-12-20T11:04:59.496Z,10.23
2018-12-20T11:07:33.303Z,10.37
2018-12-20T11:10:07.331Z,10.51
2018-12-20T11:12:41.083Z,10.37
2018-12-20T11:15:09.551Z,10.20
2018-12-20T11:17:37.943Z,10.17
2018-12-20T11:20:07.092Z,10.12
2018-12-20T11:22:35.824Z,10.17
2018-12-20T11:25:05.582Z,10.32
2018-12-20T11:27:33.947Z,10.37
2018-12-20T11:30:02.273Z,10.33
2018-12-20T11:32:30.649Z,10.47
2018-12-20T11:34:59.020Z,10.76
2018-12-20T11:37:27.459Z,10.77
2018-12-20T11:39:59.817Z,10.64
2018-12-20T11:42:26.172Z,10.50
2018-12-20T11:44:54.511Z,10.49
2018-12-20T11:47:28.112Z,10.59
2018-12-20T11:49:56.440Z,10.66
2018-12-20T11:52:25.785Z,10.37
2018-12-20T11:57:28.919Z,10.20
2018-12-20T11:59:57.246Z,10.59
2018-12-20T12:02:25.596Z,10.52
2018-12-20T12:04:53.975Z,10.56
2018-12-20T12:07:22.332Z,10.59
2018-12-20T12:09:50.732Z,10.71
2018-12-20T12:12:19.087Z,10.53
2018-12-20T12:14:47.441Z,10.51
2018-12-20T12:17:15.765Z,10.53
2018-12-20T12:19:44.098Z,10.76
2018-12-20T12:22:12.420Z,10.58
2018-12-20T12:24:40.755Z,10.57
2018-12-20T12:27:09.172Z,10.72
2018-12-20T12:29:37.514Z,10.58
2018-12-20T12:32:05.885Z,10.54
2018-12-20T12:34:34.206Z,10.64
2018-12-20T12:37:02.555Z,10.72
2018-12-20T12:39:30.891Z,10.54
2018-12-20T12:41:59.298Z,10.52
2018-12-20T12:44:27.647Z,10.52
2018-12-20T12:46:55.991Z,10.41
2018-12-20T12:49:24.443Z,10.53
2018-12-20T12:51:53.475Z,10.76
2018-12-20T12:54:22.475Z,10.68
2018-12-20T12:56:50.849Z,10.30
2018-12-20T12:59:19.191Z,10.43
2018-12-20T13:01:47.647Z,10.47
2018-12-20T13:04:16.102Z,10.41
2018-12-20T13:06:44.451Z,10.86
2018-12-20T13:09:12.828Z,10.60
2018-12-20T13:11:41.304Z,10.63
2018-12-20T13:14:09.694Z,10.53
2018-12-20T13:16:38.153Z,10.53
2018-12-20T13:19:06.518Z,10.61
2018-12-20T13:21:34.891Z,10.71
2018-12-20T13:24:03.624Z,10.54
2018-12-20T13:26:31.953Z,10.50
2018-12-20T13:29:00.494Z,10.34
2018-12-20T13:31:28.899Z,10.54
2018-12-20T13:33:57.245Z,10.44
2018-12-20T13:36:25.705Z,10.49
2018-12-20T13:38:54.045Z,10.38
2018-12-20T13:41:22.384Z,10.59
2018-12-20T13:43:50.854Z,10.40
2018-12-20T13:46:19.206Z,10.53
2018-12-20T13:48:47.667Z,10.40
2018-12-20T13:51:16.035Z,10.28
2018-12-20T13:53:44.448Z,10.20
2018-12-20T13:56:12.788Z,10.28
2018-12-20T13:58:41.138Z,10.31
2018-12-20T14:01:09.590Z,10.36
2018-12-20T14:03:38.064Z,10.39
2018-12-20T14:06:06.484Z,10.37
2018-12-20T14:08:35.062Z,10.31
2018-12-20T14:11:03.454Z,10.12
2018-12-20T14:13:31.811Z,9.86
2018-12-20T14:16:01.203Z,9.68
2018-12-20T14:18:31.180Z,9.67
2018-12-20T14:20:59.802Z,9.67
2018-12-20T14:23:28.162Z,9.38
2018-12-20T14:25:56.522Z,9.02
2018-12-20T14:28:24.955Z,8.91
2018-12-20T14:30:53.450Z,8.81
2018-12-20T14:33:22.456Z,8.81
2018-12-20T14:35:50.881Z,8.71
2018-12-20T14:38:19.292Z,8.65
2018-12-20T14:40:47.682Z,8.50
2018-12-20T14:43:16.039Z,8.71
2018-12-20T14:45:44.373Z,8.56
2018-12-20T14:48:14.763Z,8.62
2018-12-20T14:50:43.153Z,8.73
2018-12-20T14:53:11.633Z,8.62
2018-12-20T14:55:40.040Z,8.70
2018-12-20T14:58:08.401Z,8.66
2018-12-20T15:00:38.186Z,8.73
2018-12-20T15:03:06.526Z,8.80
2018-12-20T15:05:34.921Z,8.71
2018-12-20T15:08:03.271Z,8.67
2018-12-20T15:10:31.812Z,8.76
2018-12-20T15:13:00.252Z,8.73
2018-12-20T15:15:28.710Z,8.68
2018-12-20T15:17:57.275Z,8.71
2018-12-20T15:20:25.631Z,8.75
2018-12-20T15:22:54.478Z,8.66
2018-12-20T15:25:22.844Z,8.74
2018-12-20T15:27:51.222Z,8.69
2018-12-20T15:30:20.494Z,8.92
2018-12-20T15:32:48.875Z,8.86
2018-12-20T15:35:17.223Z,8.91
2018-12-20T15:37:45.918Z,8.83
2018-12-20T15:40:14.331Z,9.04
2018-12-20T15:42:42.891Z,9.08
2018-12-20T15:45:11.226Z,8.99
2018-12-20T15:47:39.556Z,9.07
2018-12-20T15:50:08.495Z,9.11
2018-12-20T15:52:36.856Z,9.04
2018-12-20T15:55:06.083Z,9.11
2018-12-20T15:57:35.449Z,9.05
2018-12-20T16:00:06.092Z,9.08
2018-12-20T16:02:35.500Z,9.02
2018-12-20T16:05:04.651Z,9.19
2018-12-20T16:07:32.993Z,9.07
2018-12-20T16:10:01.450Z,9.08
2018-12-20T16:12:30.036Z,9.12
2018-12-20T16:14:58.411Z,9.08
2018-12-20T16:17:26.802Z,9.07
2018-12-20T16:19:55.186Z,9.18
2018-12-20T16:22:23.555Z,9.21
2018-12-20T16:24:53.171Z,9.13
2018-12-20T16:27:21.515Z,9.17
2018-12-20T16:29:49.877Z,9.12
2018-12-20T16:32:21.534Z,9.08
2018-12-20T16:34:50.206Z,9.23
2018-12-20T16:37:18.583Z,9.22
2018-12-20T16:39:46.936Z,9.32
2018-12-20T16:42:15.299Z,9.28
2018-12-20T16:44:43.694Z,9.29
2018-12-20T16:47:12.079Z,9.17
2018-12-20T16:49:40.595Z,9.14
2018-12-20T16:52:08.989Z,8.98
2018-12-20T16:54:38.221Z,9.02
2018-12-20T16:57:06.654Z,8.96
2018-12-20T16:59:36.054Z,8.97
2018-12-20T17:02:04.410Z,9.08
2018-12-20T17:04:32.826Z,8.95
2018-12-20T17:07:01.185Z,8.83
2018-12-20T17:09:31.852Z,8.72
2018-12-20T17:12:00.279Z,8.77
2018-12-20T17:14:28.799Z,8.86
2018-12-20T17:16:57.911Z,8.79
2018-12-20T17:19:26.347Z,8.90
2018-12-20T17:21:54.908Z,8.87
2018-12-20T17:24:23.275Z,9.04
2018-12-20T17:26:51.831Z,8.93
2018-12-20T17:29:20.256Z,8.99
2018-12-20T17:31:48.697Z,9.03
2018-12-20T17:34:17.051Z,8.95
2018-12-20T17:36:45.430Z,8.90
2018-12-20T17:39:14.066Z,8.93
2018-12-20T17:41:44.279Z,8.92
2018-12-20T17:44:12.642Z,8.76
2018-12-20T17:46:40.988Z,8.70
2018-12-20T17:49:09.422Z,8.69
2018-12-20T17:51:37.807Z,8.52
2018-12-20T17:54:06.142Z,8.51
2018-12-20T17:56:36.719Z,8.47
2018-12-20T17:59:05.803Z,8.47
2018-12-20T18:01:34.151Z,8.59
2018-12-20T18:04:02.534Z,8.46
2018-12-20T18:06:30.978Z,8.46
2018-12-20T18:08:59.383Z,8.54
2018-12-20T18:11:28.036Z,8.45
2018-12-20T18:13:56.384Z,8.46
2018-12-20T18:16:24.794Z,8.40
2018-12-20T18:18:53.165Z,8.45
2018-12-20T18:21:21.572Z,8.43
2018-12-20T18:23:50.397Z,8.42
2018-12-20T18:26:18.924Z,8.54
2018-12-20T18:28:47.510Z,8.54
2018-12-20T18:31:16.098Z,8.53
2018-12-20T18:33:44.504Z,8.53
2018-12-20T18:36:14.343Z,8.48
2018-12-20T18:38:42.701Z,8.54
2018-12-20T18:41:11.068Z,8.56
2018-12-20T18:43:39.457Z,8.56
2018-12-20T18:46:08.350Z,8.60
2018-12-20T18:48:36.785Z,8.56
2018-12-20T18:51:05.428Z,8.56
2018-12-20T18:53:33.828Z,8.41
2018-12-20T18:56:02.165Z,8.37
2018-12-20T18:58:30.631Z,8.28
2018-12-20T19:00:59.902Z,8.26
2018-12-20T19:03:30.229Z,8.17
2018-12-20T19:06:01.505Z,8.20
2018-12-20T19:08:30.499Z,8.20
2018-12-20T19:11:00.858Z,8.26
2018-12-20T19:13:32.884Z,8.26
2018-12-20T19:16:02.998Z,8.15
2018-12-20T19:18:31.395Z,8.20
2018-12-20T19:21:01.302Z,8.24
2018-12-20T19:23:31.250Z,8.28
2018-12-20T19:26:01.056Z,8.16
2018-12-20T19:28:36.316Z,8.14
2018-12-20T19:31:04.710Z,8.09
2018-12-20T19:33:33.047Z,8.05
2018-12-20T19:36:01.630Z,8.16
2018-12-20T19:38:30.229Z,8.19
2018-12-20T19:40:59.547Z,8.13
2018-12-20T19:43:28.003Z,8.22
2018-12-20T19:45:56.553Z,8.29
2018-12-20T19:48:24.933Z,8.34
2018-12-20T19:50:53.308Z,8.37
2018-12-20T19:53:21.949Z,8.35
2018-12-20T19:55:50.724Z,8.35
2018-12-20T19:58:19.348Z,8.35
2018-12-20T20:00:47.733Z,8.35
2018-12-20T20:03:16.101Z,8.48
2018-12-20T20:05:44.531Z,8.56
2018-12-20T20:08:13.075Z,8.38
2018-12-20T20:10:43.285Z,8.37
2018-12-20T20:13:19.000Z,8.43
2018-12-20T20:15:42.017Z,8.39
2018-12-20T20:18:10.490Z,8.38
2018-12-20T20:20:40.954Z,8.39
2018-12-20T20:23:10.291Z,8.52
2018-12-20T20:25:39.368Z,8.44
2018-12-20T20:28:08.036Z,8.44
2018-12-20T20:30:36.530Z,8.56
2018-12-20T20:33:05.956Z,8.49
2018-12-20T20:35:37.134Z,8.43
2018-12-20T20:38:06.570Z,8.45
2018-12-20T20:40:35.231Z,8.41
2018-12-20T20:43:03.640Z,8.43
2018-12-20T20:45:33.281Z,8.52
2018-12-20T20:48:02.005Z,8.50
2018-12-20T20:50:31.302Z,8.46
2018-12-20T20:52:59.761Z,8.53
2018-12-20T20:55:28.275Z,8.54
2018-12-20T20:57:59.817Z,8.46
2018-12-20T21:00:28.221Z,8.55
2018-12-20T21:02:56.662Z,8.43
2018-12-20T21:05:25.315Z,8.41
2018-12-20T21:07:53.695Z,8.30
2018-12-20T21:10:22.194Z,8.38
2018-12-20T21:12:50.755Z,8.35
2018-12-20T21:15:19.163Z,8.35
2018-12-20T21:17:47.513Z,8.44
2018-12-20T21:20:16.768Z,8.33
2018-12-20T21:22:45.140Z,8.35
2018-12-20T21:25:13.514Z,8.37
2018-12-20T21:27:42.351Z,8.45
2018-12-20T21:30:11.129Z,8.35
2018-12-20T21:32:39.580Z,8.55
2018-12-20T21:35:08.076Z,8.66
2018-12-20T21:37:36.551Z,8.66
2018-12-20T21:40:06.242Z,8.70
2018-12-20T21:42:34.759Z,8.65
2018-12-20T21:45:03.204Z,8.71
2018-12-20T21:47:31.844Z,8.79
2018-12-20T21:50:00.261Z,8.74
2018-12-20T21:52:28.608Z,8.79
2018-12-20T21:54:56.952Z,8.95
2018-12-20T21:57:25.329Z,8.92
2018-12-20T22:00:01.017Z,8.81
2018-12-20T22:02:24.083Z,9.01
2018-12-20T22:04:52.453Z,8.93
2018-12-20T22:07:20.945Z,8.99
2018-12-20T22:09:49.294Z,8.98
2018-12-20T22:12:17.664Z,8.89
2018-12-20T22:14:46.013Z,9.09
2018-12-20T22:17:14.429Z,9.00
2018-12-20T22:19:42.856Z,9.02
2018-12-20T22:22:11.254Z,8.96
2018-12-20T22:24:39.603Z,8.87
2018-12-20T22:27:08.008Z,9.00
2018-12-20T22:29:36.378Z,9.02
2018-12-20T22:32:04.725Z,9.05
2018-12-20T22:34:33.156Z,9.10
2018-12-20T22:37:01.645Z,9.05
2018-12-20T22:39:29.989Z,9.15
2018-12-20T22:41:58.653Z,9.06
2018-12-20T22:44:26.984Z,8.91
2018-12-20T22:46:55.336Z,9.03
2018-12-20T22:49:23.702Z,9.05
2018-12-20T22:51:52.043Z,9.17
2018-12-20T22:54:20.546Z,9.09
2018-12-20T22:56:48.903Z,9.18
2018-12-20T22:59:17.236Z,9.14
2018-12-20T23:01:45.635Z,9.19
2018-12-20T23:04:13.963Z,9.25
2018-12-20T23:06:42.504Z,9.19
2018-12-20T23:09:10.846Z,9.16
2018-12-20T23:11:39.183Z,9.19
2018-12-20T23:14:07.532Z,9.28
2018-12-20T23:16:35.847Z,9.24
2018-12-20T23:19:04.293Z,9.23
2018-12-20T23:21:32.648Z,9.12
2018-12-20T23:24:00.978Z,9.25
2018-12-20T23:26:29.348Z,9.32
2018-12-20T23:28:57.666Z,9.31
2018-12-20T23:31:26.018Z,9.41
2018-12-20T23:33:54.372Z,9.28
2018-12-20T23:36:22.893Z,9.44
2018-12-20T23:38:51.326Z,9.43
2018-12-20T23:41:19.703Z,9.40
2018-12-20T23:43:48.069Z,9.31
2018-12-20T23:46:16.423Z,9.29
2018-12-20T23:48:44.763Z,9.33
2018-12-20T23:51:13.938Z,9.40
2018-12-20T23:53:42.482Z,9.33
2018-12-20T23:56:10.911Z,9.22
2018-12-20T23:58:39.252Z,9.37
